createdAt,value
2022-10-14T00:00:54.353Z,8.40
2022-10-14T00:03:22.020Z,8.63
2022-10-14T00:05:49.664Z,10.00
2022-10-14T00:08:17.280Z,8.73
2022-10-14T00:10:46.422Z,9.50
2022-10-14T00:13:13.979Z,9.30
2022-10-14T00:15:42.945Z,8.30
2022-10-14T00:18:11.921Z,10.60
2022-10-14T00:20:39.547Z,9.70
2022-10-14T00:23:07.511Z,9.60
2022-10-14T00:25:39.167Z,8.53
2022-10-14T00:28:08.107Z,9.40
2022-10-14T00:30:35.779Z,10.27
2022-10-14T00:33:04.180Z,10.33
2022-10-14T00:35:32.822Z,10.43
2022-10-14T00:38:00.813Z,8.50
2022-10-14T00:40:28.538Z,10.70
2022-10-14T00:42:56.245Z,10.80
2022-10-14T00:45:25.802Z,10.17
2022-10-14T00:47:55.732Z,10.10
2022-10-14T00:50:24.125Z,10.37
2022-10-14T00:52:52.467Z,11.90
2022-10-14T00:55:20.626Z,12.87
2022-10-14T00:57:48.354Z,12.13
2022-10-14T01:00:19.011Z,9.47
2022-10-14T01:02:48.116Z,11.53
2022-10-14T01:05:18.448Z,8.47
2022-10-14T01:07:55.408Z,11.03
2022-10-14T01:10:30.984Z,9.10
2022-10-14T01:13:09.063Z,7.27
2022-10-14T01:15:42.076Z,10.00
2022-10-14T01:18:33.293Z,9.17
2022-10-14T01:21:19.022Z,11.17
2022-10-14T01:24:28.605Z,9.73
2022-10-14T01:27:27.762Z,11.70
2022-10-14T01:30:13.096Z,8.50
2022-10-14T01:33:04.998Z,8.88
2022-10-14T01:35:46.340Z,7.50
2022-10-14T01:38:21.781Z,12.03
2022-10-14T01:40:56.388Z,12.17
2022-10-14T01:43:28.786Z,9.83
2022-10-14T01:46:00.829Z,9.70
2022-10-14T01:48:33.766Z,9.17
2022-10-14T01:51:04.027Z,9.87
2022-10-14T01:53:35.407Z,10.30
2022-10-14T01:56:04.934Z,9.80
2022-10-14T01:58:35.047Z,11.23
2022-10-14T02:01:05.415Z,10.87
2022-10-14T02:03:42.932Z,11.40
2022-10-14T02:06:15.523Z,11.43
2022-10-14T02:08:56.026Z,11.37
2022-10-14T02:11:24.556Z,13.07
2022-10-14T02:14:11.116Z,11.60
2022-10-14T02:16:43.746Z,11.40
2022-10-14T02:19:24.848Z,12.20
2022-10-14T02:21:57.195Z,11.80
2022-10-14T02:24:31.526Z,12.17
2022-10-14T02:27:03.587Z,13.40
2022-10-14T02:29:34.130Z,11.40
2022-10-14T02:32:05.470Z,12.57
2022-10-14T02:34:34.318Z,10.80
2022-10-14T02:37:02.688Z,12.45
2022-10-14T02:39:37.085Z,13.20
2022-10-14T02:42:06.334Z,12.93
2022-10-14T02:44:35.191Z,12.20
2022-10-14T02:47:04.217Z,12.30
2022-10-14T02:49:31.798Z,10.47
2022-10-14T02:52:00.403Z,11.23
2022-10-14T02:54:27.907Z,12.10
2022-10-14T02:56:55.829Z,12.07
2022-10-14T02:59:25.268Z,10.50
2022-10-14T03:01:53.192Z,10.70
2022-10-14T03:04:23.876Z,10.73
2022-10-14T03:06:53.961Z,11.50
2022-10-14T03:09:23.293Z,12.17
2022-10-14T03:11:51.723Z,11.40
2022-10-14T03:14:21.242Z,11.13
2022-10-14T03:16:49.589Z,11.93
2022-10-14T03:19:23.525Z,10.53
2022-10-14T03:21:54.413Z,11.23
2022-10-14T03:24:22.951Z,9.17
2022-10-14T03:27:06.670Z,13.57
2022-10-14T03:29:34.265Z,10.57
2022-10-14T03:32:13.007Z,11.93
2022-10-14T03:35:10.691Z,12.43
2022-10-14T03:37:39.422Z,12.17
2022-10-14T03:40:09.335Z,11.13
2022-10-14T03:42:37.599Z,11.60
2022-10-14T03:45:06.065Z,8.50
2022-10-14T03:47:33.746Z,11.30
2022-10-14T03:50:02.894Z,11.33
2022-10-14T03:52:46.400Z,15.77
2022-10-14T03:55:24.612Z,12.17
2022-10-14T03:57:53.116Z,11.37
2022-10-14T04:00:21.244Z,13.47
2022-10-14T04:02:58.151Z,10.47
2022-10-14T04:05:34.054Z,10.07
2022-10-14T04:08:08.023Z,10.87
2022-10-14T04:10:37.516Z,12.63
2022-10-14T04:13:05.277Z,11.63
2022-10-14T04:15:38.237Z,11.50
2022-10-14T04:18:14.113Z,11.30
2022-10-14T04:20:43.659Z,11.37
2022-10-14T04:23:14.181Z,10.20
2022-10-14T04:25:44.179Z,10.93
2022-10-14T04:28:13.143Z,11.05
2022-10-14T04:30:47.770Z,10.73
2022-10-14T04:33:21.407Z,9.93
2022-10-14T04:35:51.619Z,12.17
2022-10-14T04:38:36.474Z,10.90
2022-10-14T04:41:07.561Z,11.30
2022-10-14T04:43:36.068Z,9.63
2022-10-14T04:46:18.482Z,12.37
2022-10-14T04:48:48.329Z,10.93
2022-10-14T04:51:17.892Z,10.47
2022-10-14T04:54:12.980Z,10.60
2022-10-14T04:56:47.412Z,11.73
2022-10-14T04:59:16.035Z,9.17
2022-10-14T05:01:58.646Z,11.93
2022-10-14T05:04:35.610Z,9.80
2022-10-14T05:07:03.716Z,10.50
2022-10-14T05:09:34.027Z,10.60
2022-10-14T05:12:02.474Z,11.37
2022-10-14T05:14:39.589Z,11.83
2022-10-14T05:17:16.469Z,11.20
2022-10-14T05:19:44.189Z,10.60
2022-10-14T05:22:12.157Z,13.80
2022-10-14T05:24:46.007Z,9.77
2022-10-14T05:27:14.261Z,10.83
2022-10-14T05:29:42.618Z,12.27
2022-10-14T05:32:10.717Z,11.60
2022-10-14T05:34:42.158Z,11.10
2022-10-14T05:37:14.036Z,12.13
2022-10-14T05:39:52.769Z,12.10
2022-10-14T05:42:24.332Z,11.20
2022-10-14T05:44:54.993Z,12.20
2022-10-14T05:47:24.587Z,11.60
2022-10-14T05:49:58.640Z,12.00
2022-10-14T05:52:26.310Z,14.43
2022-10-14T05:54:56.373Z,12.87
2022-10-14T05:57:26.592Z,13.10
2022-10-14T05:59:54.558Z,13.00
2022-10-14T06:02:22.446Z,12.00
2022-10-14T06:04:50.346Z,12.83
2022-10-14T06:07:18.067Z,13.43
2022-10-14T06:09:45.641Z,13.43
2022-10-14T06:12:15.193Z,12.97
2022-10-14T06:14:42.949Z,12.23
2022-10-14T06:17:10.630Z,13.47
2022-10-14T06:19:38.965Z,12.90
2022-10-14T06:22:06.710Z,13.67
2022-10-14T06:24:34.391Z,14.07
2022-10-14T06:27:01.989Z,13.80
2022-10-14T06:29:37.740Z,11.73
2022-10-14T06:32:05.820Z,12.40
2022-10-14T06:34:33.595Z,11.70
2022-10-14T06:37:02.611Z,12.20
2022-10-14T06:39:30.502Z,14.02
2022-10-14T06:41:58.228Z,12.83
2022-10-14T06:44:25.934Z,13.90
2022-10-14T06:46:54.931Z,13.87
2022-10-14T06:49:22.732Z,13.80
2022-10-14T06:51:50.364Z,13.03
2022-10-14T06:54:18.221Z,13.97
2022-10-14T06:56:46.084Z,13.53
2022-10-14T06:59:13.775Z,13.67
2022-10-14T07:01:41.571Z,12.57
2022-10-14T07:04:10.544Z,14.73
2022-10-14T07:06:38.201Z,14.17
2022-10-14T07:09:05.976Z,14.00
2022-10-14T07:11:33.880Z,14.93
2022-10-14T07:14:01.453Z,14.37
2022-10-14T07:16:29.361Z,15.27
2022-10-14T07:18:57.089Z,13.03
2022-10-14T07:21:27.570Z,14.20
2022-10-14T07:23:55.709Z,13.82
2022-10-14T07:26:23.365Z,15.03
2022-10-14T07:28:51.261Z,13.63
2022-10-14T07:31:19.152Z,13.50
2022-10-14T07:33:54.393Z,14.57
2022-10-14T07:36:55.718Z,15.63
2022-10-14T07:39:28.935Z,15.60
2022-10-14T07:41:59.596Z,17.73
2022-10-14T07:44:30.125Z,15.80
2022-10-14T07:47:07.029Z,15.37
2022-10-14T07:49:37.353Z,14.70
2022-10-14T07:52:23.857Z,14.00
2022-10-14T07:55:04.337Z,13.63
2022-10-14T07:57:37.230Z,13.43
2022-10-14T08:00:12.661Z,16.20
2022-10-14T08:02:40.690Z,13.65
2022-10-14T08:05:42.553Z,13.60
2022-10-14T08:08:18.553Z,14.53
2022-10-14T08:11:12.881Z,14.33
2022-10-14T08:13:46.563Z,14.90
2022-10-14T08:16:23.128Z,13.93
2022-10-14T08:19:00.500Z,15.53
2022-10-14T08:21:44.628Z,16.00
2022-10-14T08:27:02.225Z,17.17
2022-10-14T08:29:49.826Z,16.10
2022-10-14T08:32:17.902Z,14.87
2022-10-14T08:34:52.527Z,16.00
2022-10-14T08:37:26.333Z,16.37
2022-10-14T08:39:55.734Z,16.47
2022-10-14T08:42:39.163Z,18.30
2022-10-14T08:45:16.867Z,17.97
2022-10-14T08:47:48.750Z,16.10
2022-10-14T08:50:31.126Z,18.27
2022-10-14T08:53:07.910Z,15.90
2022-10-14T08:55:45.301Z,15.60
2022-10-14T09:01:09.836Z,14.83
2022-10-14T09:03:52.224Z,13.48
2022-10-14T09:06:44.445Z,15.50
2022-10-14T09:09:35.729Z,11.80
2022-10-14T09:12:18.284Z,13.10
2022-10-14T09:15:02.395Z,17.70
2022-10-14T09:17:42.085Z,14.03
2022-10-14T09:20:18.353Z,11.47
2022-10-14T09:22:48.516Z,11.60
2022-10-14T09:25:24.518Z,12.60
2022-10-14T09:28:13.799Z,12.60
2022-10-14T09:31:11.517Z,11.75
2022-10-14T09:34:01.859Z,13.60
2022-10-14T09:36:42.794Z,12.17
2022-10-14T09:39:31.170Z,11.32
2022-10-14T09:42:07.605Z,11.60
2022-10-14T09:44:53.517Z,9.73
2022-10-14T09:47:38.312Z,10.83
2022-10-14T09:50:30.529Z,10.83
2022-10-14T09:53:11.363Z,9.60
2022-10-14T09:56:00.465Z,9.07
2022-10-14T09:59:30.746Z,8.80
2022-10-14T10:02:12.416Z,8.10
2022-10-14T10:04:57.303Z,8.40
2022-10-14T10:07:34.389Z,8.50
2022-10-14T10:10:23.840Z,7.20
2022-10-14T10:13:07.429Z,5.97
2022-10-14T10:15:43.903Z,7.27
2022-10-14T10:18:30.535Z,6.80
2022-10-14T10:21:09.666Z,6.30
2022-10-14T10:23:41.668Z,6.53
2022-10-14T10:26:25.913Z,6.17
2022-10-14T10:29:06.548Z,4.93
2022-10-14T10:32:03.622Z,6.03
2022-10-14T10:35:15.048Z,6.00
2022-10-14T10:38:01.231Z,4.83
2022-10-14T10:40:42.025Z,5.60
2022-10-14T10:43:52.383Z,5.73
2022-10-14T10:46:47.160Z,5.50
2022-10-14T10:49:37.678Z,5.33
2022-10-14T10:52:31.776Z,4.80
2022-10-14T10:55:19.266Z,4.20
2022-10-14T10:58:09.095Z,3.90
2022-10-14T11:00:53.997Z,4.07
2022-10-14T11:03:56.878Z,4.37
2022-10-14T11:06:58.897Z,3.30
2022-10-14T11:10:09.363Z,3.20
2022-10-14T11:12:51.142Z,2.63
2022-10-14T11:15:36.524Z,2.47
2022-10-14T11:18:25.895Z,2.80
2022-10-14T11:21:20.636Z,2.80
2022-10-14T11:24:12.746Z,2.20
2022-10-14T11:27:02.667Z,2.13
2022-10-14T11:30:30.757Z,2.20
2022-10-14T11:33:40.104Z,2.30
2022-10-14T11:36:24.966Z,2.00
2022-10-14T11:39:14.673Z,1.53
2022-10-14T11:42:13.538Z,2.30
2022-10-14T11:44:43.760Z,2.13
2022-10-14T11:47:18.701Z,1.80
2022-10-14T11:50:01.102Z,2.43
2022-10-14T11:52:35.152Z,1.70
2022-10-14T11:55:14.792Z,2.10
2022-10-14T11:58:07.929Z,1.90
2022-10-14T12:01:19.204Z,1.60
2022-10-14T12:04:19.736Z,2.00
2022-10-14T12:07:02.039Z,1.90
2022-10-14T12:09:55.818Z,1.73
2022-10-14T12:12:41.131Z,1.98
2022-10-14T12:15:41.463Z,1.67
2022-10-14T12:18:14.826Z,1.30
2022-10-14T12:20:59.787Z,1.67
2022-10-14T12:23:35.230Z,1.90
2022-10-14T12:26:16.614Z,1.60
2022-10-14T12:28:48.107Z,1.57
2022-10-14T12:31:47.990Z,1.67
2022-10-14T12:34:29.223Z,1.63
2022-10-14T12:37:31.713Z,1.93
2022-10-14T12:40:23.679Z,2.00
2022-10-14T12:43:21.580Z,1.90
2022-10-14T12:46:07.260Z,2.00
2022-10-14T12:48:45.788Z,1.90
2022-10-14T12:51:20.209Z,1.70
2022-10-14T12:54:10.401Z,1.70
2022-10-14T12:56:59.279Z,1.97
2022-10-14T12:59:31.668Z,2.63
2022-10-14T13:02:34.303Z,1.73
2022-10-14T13:05:29.290Z,1.83
2022-10-14T13:08:38.762Z,1.67
2022-10-14T13:11:26.355Z,2.40
2022-10-14T13:14:18.351Z,1.80
2022-10-14T13:17:15.655Z,1.80
2022-10-14T13:20:19.263Z,1.90
2022-10-14T13:23:29.858Z,2.10
2022-10-14T13:26:29.162Z,1.70
2022-10-14T13:29:22.705Z,1.63
2022-10-14T13:32:21.152Z,1.90
2022-10-14T13:35:14.071Z,1.50
2022-10-14T13:38:04.338Z,1.40
2022-10-14T13:40:47.967Z,1.60
2022-10-14T13:43:59.404Z,1.20
2022-10-14T13:47:09.420Z,1.30
2022-10-14T13:49:50.387Z,1.50
2022-10-14T13:52:34.400Z,1.70
2022-10-14T13:55:46.453Z,1.40
2022-10-14T14:02:17.027Z,1.47
2022-10-14T14:04:59.311Z,1.60
2022-10-14T14:08:30.099Z,1.27
2022-10-14T14:11:16.327Z,1.20
2022-10-14T14:14:08.932Z,1.40
2022-10-14T14:16:50.284Z,1.37
2022-10-14T14:19:26.031Z,1.70
2022-10-14T14:22:24.676Z,1.77
2022-10-14T14:25:33.399Z,1.80
2022-10-14T14:28:32.233Z,1.60
2022-10-14T14:32:10.520Z,1.70
2022-10-14T14:38:00.316Z,1.70
2022-10-14T14:41:39.609Z,1.53
2022-10-14T14:44:26.414Z,1.47
2022-10-14T14:46:59.243Z,1.70
2022-10-14T14:49:29.992Z,1.50
2022-10-14T14:52:03.188Z,1.67
2022-10-14T14:54:31.258Z,1.73
2022-10-14T14:57:05.269Z,1.73
2022-10-14T14:59:36.852Z,1.80
2022-10-14T15:02:13.516Z,1.40
2022-10-14T15:04:43.612Z,1.73
2022-10-14T15:07:21.241Z,1.57
2022-10-14T15:09:52.062Z,1.53
2022-10-14T15:12:22.679Z,1.80
2022-10-14T15:14:52.809Z,2.37
2022-10-14T15:17:27.020Z,1.60
2022-10-14T15:19:56.593Z,1.83
2022-10-14T15:22:37.224Z,1.53
2022-10-14T15:25:10.601Z,1.65
2022-10-14T15:27:52.416Z,1.70
2022-10-14T15:30:35.796Z,2.00
2022-10-14T15:33:14.547Z,1.60
2022-10-14T15:35:42.341Z,2.10
2022-10-14T15:38:16.279Z,1.43
2022-10-14T15:40:45.386Z,1.50
2022-10-14T15:43:17.596Z,1.43
2022-10-14T15:46:11.547Z,1.50
2022-10-14T15:48:40.415Z,1.40
2022-10-14T15:51:08.160Z,1.90
2022-10-14T15:53:37.267Z,2.07
2022-10-14T15:56:05.210Z,1.53
2022-10-14T15:58:33.803Z,2.07
2022-10-14T16:01:02.123Z,1.70
2022-10-14T16:03:34.578Z,2.10
2022-10-14T16:06:03.767Z,2.00
2022-10-14T16:08:31.467Z,1.87
2022-10-14T16:11:00.496Z,1.70
2022-10-14T16:13:28.223Z,1.80
2022-10-14T16:16:02.628Z,2.20
2022-10-14T16:18:30.409Z,2.20
2022-10-14T16:20:58.172Z,2.10
2022-10-14T16:23:29.646Z,3.17
2022-10-14T16:26:01.858Z,1.90
2022-10-14T16:28:29.516Z,2.23
2022-10-14T16:30:57.248Z,2.30
2022-10-14T16:33:25.101Z,2.80
2022-10-14T16:35:55.844Z,2.65
2022-10-14T16:38:24.839Z,2.10
2022-10-14T16:40:56.354Z,4.03
2022-10-14T16:43:26.075Z,2.53
2022-10-14T16:45:53.900Z,2.90
2022-10-14T16:48:21.489Z,2.50
2022-10-14T16:50:51.477Z,2.65
2022-10-14T16:53:36.850Z,2.27
2022-10-14T16:56:25.129Z,2.50
2022-10-14T16:58:54.138Z,2.43
2022-10-14T17:01:22.237Z,2.53
2022-10-14T17:03:50.072Z,2.80
2022-10-14T17:06:23.151Z,2.70
2022-10-14T17:08:52.456Z,2.80
2022-10-14T17:11:20.785Z,3.40
2022-10-14T17:13:52.284Z,2.60
2022-10-14T17:16:21.485Z,2.93
2022-10-14T17:18:49.712Z,2.95
2022-10-14T17:21:18.311Z,3.00
2022-10-14T17:23:46.089Z,2.97
2022-10-14T17:26:15.657Z,2.90
2022-10-14T17:28:43.641Z,3.37
2022-10-14T17:31:13.289Z,2.70
2022-10-14T17:33:42.156Z,2.95
2022-10-14T17:36:17.974Z,3.53
2022-10-14T17:38:46.134Z,4.13
2022-10-14T17:41:14.576Z,3.13
2022-10-14T17:43:42.430Z,3.08
2022-10-14T17:46:12.073Z,3.50
2022-10-14T17:48:42.499Z,3.03
2022-10-14T17:51:11.364Z,3.30
2022-10-14T17:53:39.628Z,3.50
2022-10-14T17:56:08.566Z,3.20
2022-10-14T17:58:39.217Z,3.17
2022-10-14T18:01:08.776Z,3.13
2022-10-14T18:03:36.730Z,3.53
2022-10-14T18:06:13.300Z,3.23
2022-10-14T18:08:41.214Z,3.23
2022-10-14T18:11:10.860Z,3.83
2022-10-14T18:16:10.129Z,2.83
2022-10-14T18:18:37.997Z,2.80
2022-10-14T18:21:06.637Z,3.20
2022-10-14T18:23:38.955Z,3.53
2022-10-14T18:26:11.002Z,3.80
2022-10-14T18:28:43.480Z,3.63
2022-10-14T18:31:13.685Z,3.38
2022-10-14T18:33:43.947Z,4.63
2022-10-14T18:36:13.846Z,4.00
2022-10-14T18:38:42.977Z,4.20
2022-10-14T18:41:13.196Z,4.60
2022-10-14T18:43:41.847Z,4.70
2022-10-14T18:46:13.647Z,4.50
2022-10-14T18:48:42.267Z,4.87
2022-10-14T18:51:10.922Z,4.53
2022-10-14T18:53:41.555Z,4.40
2022-10-14T18:56:16.217Z,4.83
2022-10-14T18:58:44.922Z,4.67
2022-10-14T19:01:13.428Z,5.00
2022-10-14T19:03:41.486Z,3.90
2022-10-14T19:06:10.543Z,4.90
2022-10-14T19:08:40.079Z,4.57
2022-10-14T19:11:10.018Z,4.87
2022-10-14T19:13:40.749Z,4.23
2022-10-14T19:16:12.375Z,4.53
2022-10-14T19:18:40.277Z,4.17
2022-10-14T19:21:10.018Z,4.70
2022-10-14T19:23:38.509Z,4.10
2022-10-14T19:26:06.934Z,4.73
2022-10-14T19:28:34.677Z,4.60
2022-10-14T19:31:07.187Z,4.30
2022-10-14T19:33:36.437Z,4.50
2022-10-14T19:36:04.281Z,5.03
2022-10-14T19:38:31.832Z,4.00
2022-10-14T19:41:00.180Z,4.93
2022-10-14T19:43:28.000Z,4.63
2022-10-14T19:45:55.796Z,5.37
2022-10-14T19:48:24.755Z,5.70
2022-10-14T19:50:52.718Z,4.87
2022-10-14T19:53:20.530Z,4.40
2022-10-14T19:55:48.340Z,4.37
2022-10-14T19:58:15.907Z,4.70
2022-10-14T20:00:43.657Z,4.50
2022-10-14T20:03:11.382Z,4.87
2022-10-14T20:05:40.432Z,4.87
2022-10-14T20:08:08.111Z,5.40
2022-10-14T20:10:35.884Z,5.50
2022-10-14T20:13:03.626Z,5.20
2022-10-14T20:15:31.329Z,5.03
2022-10-14T20:17:59.246Z,4.80
2022-10-14T20:20:26.868Z,4.70
2022-10-14T20:22:59.035Z,3.93
2022-10-14T20:25:27.255Z,5.40
2022-10-14T20:27:55.056Z,5.13
2022-10-14T20:30:22.712Z,5.73
2022-10-14T20:32:53.761Z,5.30
2022-10-14T20:35:21.467Z,5.13
2022-10-14T20:37:49.130Z,4.70
2022-10-14T20:40:18.289Z,5.70
2022-10-14T20:42:45.934Z,5.33
2022-10-14T20:45:13.679Z,4.37
2022-10-14T20:47:41.745Z,5.07
2022-10-14T20:50:09.986Z,5.40
2022-10-14T20:52:37.588Z,5.80
2022-10-14T20:55:05.888Z,5.30
2022-10-14T20:57:35.180Z,5.65
2022-10-14T21:00:03.039Z,5.40
2022-10-14T21:02:30.951Z,5.00
2022-10-14T21:04:58.665Z,4.47
2022-10-14T21:07:26.740Z,5.13
2022-10-14T21:09:54.608Z,5.60
2022-10-14T21:12:22.589Z,5.17
2022-10-14T21:14:52.609Z,4.90
2022-10-14T21:17:20.738Z,5.20
2022-10-14T21:19:49.152Z,5.67
2022-10-14T21:22:16.827Z,6.07
2022-10-14T21:24:44.413Z,4.73
2022-10-14T21:27:12.121Z,6.00
2022-10-14T21:29:39.920Z,5.73
2022-10-14T21:32:09.146Z,5.60
2022-10-14T21:34:36.849Z,6.83
2022-10-14T21:37:04.967Z,5.10
2022-10-14T21:39:33.370Z,5.53
2022-10-14T21:42:01.150Z,5.17
2022-10-14T21:44:28.748Z,6.27
2022-10-14T21:46:56.351Z,5.57
2022-10-14T21:49:25.676Z,5.30
2022-10-14T21:51:53.542Z,5.90
2022-10-14T21:54:22.438Z,5.13
2022-10-14T21:56:51.276Z,5.00
2022-10-14T21:59:19.301Z,5.73
2022-10-14T22:01:46.940Z,5.07
2022-10-14T22:04:14.962Z,5.27
2022-10-14T22:06:43.886Z,5.70
2022-10-14T22:09:11.536Z,5.40
2022-10-14T22:11:41.574Z,5.37
2022-10-14T22:14:12.577Z,5.30
2022-10-14T22:16:40.274Z,5.33
2022-10-14T22:19:08.037Z,4.73
2022-10-14T22:21:37.247Z,4.70
2022-10-14T22:26:35.975Z,5.97
2022-10-14T22:29:05.901Z,4.63
2022-10-14T22:31:34.703Z,4.77
2022-10-14T22:34:05.476Z,5.00
2022-10-14T22:36:34.854Z,4.87
2022-10-14T22:39:05.268Z,4.23
2022-10-14T22:41:35.872Z,4.33
2022-10-14T22:44:05.081Z,4.50
2022-10-14T22:46:36.901Z,4.90
2022-10-14T22:49:04.544Z,4.80
2022-10-14T22:51:34.691Z,5.60
2022-10-14T22:54:03.044Z,5.57
2022-10-14T22:56:31.999Z,4.20
2022-10-14T22:59:02.649Z,4.40
2022-10-14T23:01:31.169Z,4.57
2022-10-14T23:03:59.880Z,5.57
2022-10-14T23:06:28.540Z,4.23
2022-10-14T23:08:56.218Z,4.17
2022-10-14T23:11:25.520Z,4.83
2022-10-14T23:13:53.582Z,4.13
2022-10-14T23:16:24.371Z,4.77
2022-10-14T23:18:52.764Z,5.07
2022-10-14T23:21:22.927Z,5.03
2022-10-14T23:23:51.673Z,5.18
2022-10-14T23:26:21.270Z,4.47
2022-10-14T23:28:49.731Z,4.50
2022-10-14T23:31:19.967Z,4.70
2022-10-14T23:33:51.408Z,4.57
2022-10-14T23:36:19.958Z,5.03
2022-10-14T23:38:47.972Z,4.33
2022-10-14T23:41:16.348Z,4.60
2022-10-14T23:43:44.209Z,5.97
2022-10-14T23:46:12.168Z,4.90
2022-10-14T23:48:39.847Z,5.23
2022-10-14T23:51:09.754Z,6.20
2022-10-14T23:53:37.416Z,6.15
2022-10-14T23:56:06.105Z,6.40
2022-10-14T23:58:34.727Z,6.43
